createdAt,value
2022-07-27T00:01:03.756Z,66.41
2022-07-27T00:03:31.786Z,66.41
2022-07-27T00:05:59.584Z,66.58
2022-07-27T00:08:27.687Z,66.88
2022-07-27T00:10:55.522Z,67.28
2022-07-27T00:13:24.785Z,67.14
2022-07-27T00:15:52.877Z,67.27
2022-07-27T00:18:20.825Z,67.75
2022-07-27T00:20:48.992Z,67.79
2022-07-27T00:23:16.862Z,68.04
2022-07-27T00:25:44.743Z,68.47
2022-07-27T00:28:12.575Z,68.47
2022-07-27T00:30:41.848Z,68.88
2022-07-27T00:33:09.687Z,69.10
2022-07-27T00:35:37.519Z,69.23
2022-07-27T00:38:05.463Z,69.25
2022-07-27T00:40:33.364Z,69.18
2022-07-27T00:43:01.195Z,69.17
2022-07-27T00:45:32.995Z,69.14
2022-07-27T00:48:02.261Z,69.66
2022-07-27T00:50:30.105Z,69.75
2022-07-27T00:52:57.973Z,69.96
2022-07-27T00:55:26.105Z,70.21
2022-07-27T00:57:59.478Z,70.60
2022-07-27T01:00:27.914Z,70.40
2022-07-27T01:02:57.456Z,70.10
2022-07-27T01:05:35.847Z,70.09
2022-07-27T01:08:06.875Z,69.83
2022-07-27T01:10:35.053Z,69.55
2022-07-27T01:13:03.858Z,69.39
2022-07-27T01:15:35.352Z,69.15
2022-07-27T01:18:11.340Z,69.04
2022-07-27T01:20:42.607Z,68.94
2022-07-27T01:23:12.064Z,68.67
2022-07-27T01:25:42.766Z,68.33
2022-07-27T01:28:10.781Z,68.31
2022-07-27T01:30:38.615Z,68.49
2022-07-27T01:33:09.124Z,68.14
2022-07-27T01:35:38.159Z,68.06
2022-07-27T01:38:06.533Z,67.86
2022-07-27T01:40:37.557Z,67.44
2022-07-27T01:43:05.704Z,67.87
2022-07-27T01:45:33.726Z,67.22
2022-07-27T01:48:01.861Z,67.08
2022-07-27T01:50:29.776Z,67.03
2022-07-27T01:52:57.590Z,67.41
2022-07-27T01:55:25.401Z,67.64
2022-07-27T01:57:54.570Z,67.83
2022-07-27T02:00:22.411Z,67.46
2022-07-27T02:02:50.356Z,68.00
2022-07-27T02:05:18.209Z,68.00
2022-07-27T02:07:46.077Z,68.26
2022-07-27T02:10:13.944Z,68.32
2022-07-27T02:12:40.997Z,68.52
2022-07-27T02:15:15.179Z,68.51
2022-07-27T02:17:45.081Z,68.83
2022-07-27T02:20:15.274Z,69.34
2022-07-27T02:22:43.537Z,69.40
2022-07-27T02:25:12.592Z,69.58
2022-07-27T02:27:41.044Z,69.82
2022-07-27T02:30:12.128Z,70.19
2022-07-27T02:32:40.827Z,70.24
2022-07-27T02:35:18.727Z,70.10
2022-07-27T02:37:48.204Z,70.30
2022-07-27T02:40:17.285Z,70.48
2022-07-27T02:42:46.546Z,70.75
2022-07-27T02:45:15.816Z,70.50
2022-07-27T02:47:44.031Z,71.05
2022-07-27T02:50:12.492Z,71.33
2022-07-27T02:52:40.407Z,71.49
2022-07-27T02:55:09.381Z,71.43
2022-07-27T02:57:40.850Z,71.30
2022-07-27T03:00:11.424Z,71.69
2022-07-27T03:02:40.827Z,72.19
2022-07-27T03:05:10.310Z,72.02
2022-07-27T03:07:38.323Z,72.43
2022-07-27T03:10:07.256Z,72.38
2022-07-27T03:12:35.103Z,72.79
2022-07-27T03:15:02.991Z,72.54
2022-07-27T03:17:30.883Z,72.76
2022-07-27T03:20:00.054Z,73.27
2022-07-27T03:22:30.850Z,73.52
2022-07-27T03:24:58.852Z,73.96
2022-07-27T03:27:27.022Z,74.15
2022-07-27T03:29:54.799Z,74.25
2022-07-27T03:32:22.628Z,74.36
2022-07-27T03:34:50.582Z,74.58
2022-07-27T03:37:20.196Z,74.54
2022-07-27T03:39:48.019Z,74.95
2022-07-27T03:42:15.893Z,75.30
2022-07-27T03:44:44.391Z,75.12
2022-07-27T03:47:12.222Z,75.28
2022-07-27T03:49:39.971Z,75.52
2022-07-27T03:52:07.880Z,75.78
2022-07-27T03:54:37.014Z,76.03
2022-07-27T03:57:04.957Z,76.03
2022-07-27T03:59:32.847Z,76.34
2022-07-27T04:02:00.730Z,75.86
2022-07-27T04:04:28.612Z,76.28
2022-07-27T04:06:56.433Z,75.97
2022-07-27T04:09:24.958Z,76.21
2022-07-27T04:11:56.249Z,77.37
2022-07-27T04:14:24.095Z,77.56
2022-07-27T04:16:52.029Z,78.04
2022-07-27T04:19:20.036Z,77.96
2022-07-27T04:21:47.939Z,77.89
2022-07-27T04:24:15.793Z,78.31
2022-07-27T04:26:43.790Z,78.57
2022-07-27T04:29:16.939Z,78.78
2022-07-27T04:31:47.910Z,78.77
2022-07-27T04:34:15.873Z,79.50
2022-07-27T04:36:43.808Z,80.00
2022-07-27T04:39:12.085Z,80.23
2022-07-27T04:41:40.240Z,80.49
2022-07-27T04:44:08.361Z,80.61
2022-07-27T04:46:37.629Z,81.31
2022-07-27T04:49:06.323Z,81.67
2022-07-27T04:51:35.432Z,82.00
2022-07-27T04:54:03.662Z,81.89
2022-07-27T04:56:31.466Z,82.27
2022-07-27T04:58:59.281Z,82.67
2022-07-27T05:01:31.647Z,82.82
2022-07-27T05:04:05.298Z,83.15
2022-07-27T05:06:33.388Z,83.26
2022-07-27T05:09:01.209Z,83.45
2022-07-27T05:11:29.106Z,83.41
2022-07-27T05:13:56.991Z,83.76
2022-07-27T05:16:28.440Z,83.54
2022-07-27T05:18:57.146Z,83.96
2022-07-27T05:21:27.371Z,83.56
2022-07-27T05:23:55.718Z,83.02
2022-07-27T05:26:23.604Z,82.24
2022-07-27T05:28:51.455Z,81.66
2022-07-27T05:31:19.758Z,81.75
2022-07-27T05:33:49.235Z,81.73
2022-07-27T05:36:18.686Z,81.25
2022-07-27T05:38:47.845Z,80.63
2022-07-27T05:41:16.181Z,80.29
2022-07-27T05:43:44.646Z,79.88
2022-07-27T05:46:12.656Z,79.09
2022-07-27T05:48:40.609Z,78.70
2022-07-27T05:51:09.463Z,78.25
2022-07-27T05:53:37.534Z,78.31
2022-07-27T05:56:08.018Z,78.63
2022-07-27T06:01:17.234Z,77.72
2022-07-27T06:03:45.546Z,77.75
2022-07-27T06:06:36.193Z,77.71
2022-07-27T06:09:05.153Z,77.09
2022-07-27T06:11:34.582Z,77.06
2022-07-27T06:14:02.805Z,76.58
2022-07-27T06:16:30.857Z,76.67
2022-07-27T06:18:58.813Z,76.69
2022-07-27T06:21:28.228Z,76.67
2022-07-27T06:23:56.593Z,75.93
2022-07-27T06:26:24.909Z,75.39
2022-07-27T06:28:58.806Z,75.23
2022-07-27T06:31:27.612Z,74.76
2022-07-27T06:33:58.500Z,74.56
2022-07-27T06:36:30.020Z,73.89
2022-07-27T06:38:58.716Z,73.00
2022-07-27T06:41:26.895Z,72.71
2022-07-27T06:43:56.322Z,72.25
2022-07-27T06:46:24.278Z,71.90
2022-07-27T06:48:53.317Z,70.77
2022-07-27T06:51:21.809Z,70.16
2022-07-27T06:53:53.248Z,69.62
2022-07-27T06:56:22.330Z,69.20
2022-07-27T06:58:51.239Z,67.83
2022-07-27T07:01:20.619Z,66.64
2022-07-27T07:03:48.723Z,66.63
2022-07-27T07:06:16.873Z,66.22
2022-07-27T07:08:45.015Z,66.28
2022-07-27T07:11:14.135Z,66.28
2022-07-27T07:13:44.958Z,65.40
2022-07-27T07:16:13.309Z,65.25
2022-07-27T07:18:42.670Z,64.70
2022-07-27T07:21:10.697Z,64.96
2022-07-27T07:23:38.713Z,64.67
2022-07-27T07:26:07.144Z,64.20
2022-07-27T07:28:36.345Z,63.86
2022-07-27T07:31:04.482Z,63.29
2022-07-27T07:33:32.525Z,63.04
2022-07-27T07:36:12.836Z,62.93
2022-07-27T07:38:42.875Z,62.07
2022-07-27T07:41:10.910Z,61.37
2022-07-27T07:43:39.887Z,60.53
2022-07-27T07:46:08.774Z,59.86
2022-07-27T07:48:36.827Z,59.39
2022-07-27T07:51:06.190Z,59.25
2022-07-27T07:53:37.870Z,57.94
2022-07-27T07:56:09.241Z,57.71
2022-07-27T07:58:37.247Z,56.66
2022-07-27T08:01:05.314Z,56.55
2022-07-27T08:03:33.577Z,56.58
2022-07-27T08:06:01.711Z,56.64
2022-07-27T08:08:33.148Z,56.49
2022-07-27T08:11:01.033Z,56.61
2022-07-27T08:13:29.289Z,56.92
2022-07-27T08:15:57.265Z,56.40
2022-07-27T08:18:25.348Z,56.73
2022-07-27T08:20:53.327Z,56.15
2022-07-27T08:23:21.366Z,55.77
2022-07-27T08:25:50.819Z,55.07
2022-07-27T08:28:18.754Z,54.71
2022-07-27T08:30:47.610Z,54.99
2022-07-27T08:33:17.324Z,54.88
2022-07-27T08:35:46.282Z,53.32
2022-07-27T08:38:14.354Z,52.85
2022-07-27T08:40:44.828Z,51.11
2022-07-27T08:43:23.978Z,51.55
2022-07-27T08:45:56.381Z,52.03
2022-07-27T08:48:25.849Z,52.37
2022-07-27T08:50:54.552Z,52.08
2022-07-27T08:53:23.426Z,52.44
2022-07-27T08:55:51.783Z,52.09
2022-07-27T08:58:21.208Z,51.46
2022-07-27T09:00:51.058Z,51.88
2022-07-27T09:03:21.848Z,51.81
2022-07-27T09:05:51.886Z,51.79
2022-07-27T09:08:24.472Z,50.99
2022-07-27T09:10:54.643Z,50.89
2022-07-27T09:13:27.158Z,50.13
2022-07-27T09:16:18.638Z,50.03
2022-07-27T09:18:45.970Z,49.98
2022-07-27T09:21:17.609Z,48.95
2022-07-27T09:23:49.281Z,48.30
2022-07-27T09:26:31.919Z,48.09
2022-07-27T09:29:03.747Z,48.60
2022-07-27T09:31:32.625Z,48.91
2022-07-27T09:34:02.853Z,48.83
2022-07-27T09:36:32.331Z,48.60
2022-07-27T09:39:03.837Z,48.32
2022-07-27T09:41:43.069Z,47.19
2022-07-27T09:44:31.662Z,46.86
2022-07-27T09:47:01.163Z,46.25
2022-07-27T09:49:31.826Z,46.43
2022-07-27T09:52:02.171Z,46.51
2022-07-27T09:54:44.283Z,46.37
2022-07-27T09:57:12.503Z,46.41
2022-07-27T09:59:42.107Z,46.09
2022-07-27T10:02:10.228Z,46.01
2022-07-27T10:04:38.550Z,45.17
2022-07-27T10:07:10.876Z,45.19
2022-07-27T10:09:41.510Z,45.21
2022-07-27T10:12:10.257Z,45.53
2022-07-27T10:14:38.379Z,45.76
2022-07-27T10:17:12.898Z,45.14
2022-07-27T10:19:47.761Z,44.71
2022-07-27T10:22:16.068Z,44.30
2022-07-27T10:24:44.272Z,43.71
2022-07-27T10:27:28.014Z,43.58
2022-07-27T10:29:56.751Z,43.26
2022-07-27T10:32:27.214Z,43.54
2022-07-27T10:34:55.285Z,44.49
2022-07-27T10:37:28.197Z,45.04
2022-07-27T10:40:11.770Z,44.17
2022-07-27T10:42:40.800Z,43.67
2022-07-27T10:45:11.447Z,42.81
2022-07-27T10:47:45.884Z,43.10
2022-07-27T10:50:24.047Z,42.04
2022-07-27T10:52:54.645Z,42.07
2022-07-27T10:55:48.720Z,42.13
2022-07-27T10:58:45.899Z,42.52
2022-07-27T11:01:15.953Z,42.77
2022-07-27T11:03:52.691Z,42.36
2022-07-27T11:07:14.990Z,40.95
2022-07-27T11:10:00.330Z,40.68
2022-07-27T11:12:02.095Z,41.17
2022-07-27T11:14:31.920Z,40.90
2022-07-27T11:17:32.372Z,41.54
2022-07-27T11:19:55.394Z,42.24
2022-07-27T11:23:03.232Z,42.14
2022-07-27T11:25:22.088Z,42.00
2022-07-27T11:27:50.723Z,41.84
2022-07-27T11:30:27.360Z,40.24
2022-07-27T11:32:56.562Z,39.41
2022-07-27T11:35:26.015Z,39.26
2022-07-27T11:38:03.379Z,39.33
2022-07-27T11:43:34.068Z,39.19
2022-07-27T11:46:16.920Z,38.84
2022-07-27T11:49:06.164Z,38.14
2022-07-27T11:51:38.438Z,38.53
2022-07-27T11:54:08.334Z,38.96
2022-07-27T11:56:38.798Z,39.11
2022-07-27T11:59:18.166Z,39.03
2022-07-27T12:01:49.797Z,38.97
2022-07-27T12:04:25.687Z,37.67
2022-07-27T12:07:07.737Z,38.19
2022-07-27T12:09:38.551Z,37.70
2022-07-27T12:12:12.503Z,36.69
2022-07-27T12:14:42.721Z,36.28
2022-07-27T12:17:20.041Z,35.83
2022-07-27T12:19:59.808Z,35.38
2022-07-27T12:22:31.815Z,35.38
2022-07-27T12:25:00.988Z,35.14
2022-07-27T12:27:29.079Z,34.29
2022-07-27T12:30:06.940Z,34.15
2022-07-27T12:32:37.471Z,33.73
2022-07-27T12:35:25.814Z,33.58
2022-07-27T12:38:03.083Z,33.69
2022-07-27T12:40:32.777Z,33.20
2022-07-27T12:43:02.800Z,33.19
2022-07-27T12:45:33.457Z,32.27
2022-07-27T12:48:09.818Z,32.19
2022-07-27T12:50:38.793Z,32.80
2022-07-27T12:53:09.518Z,32.44
2022-07-27T12:55:38.288Z,32.99
2022-07-27T12:58:06.101Z,32.97
2022-07-27T13:00:34.458Z,32.03
2022-07-27T13:03:03.589Z,32.37
2022-07-27T13:05:32.715Z,31.41
2022-07-27T13:08:01.031Z,31.19
2022-07-27T13:10:30.373Z,31.05
2022-07-27T13:12:58.359Z,31.07
2022-07-27T13:15:26.273Z,30.47
2022-07-27T13:17:54.346Z,30.71
2022-07-27T13:20:22.345Z,30.22
2022-07-27T13:22:50.629Z,29.44
2022-07-27T13:25:18.919Z,29.01
2022-07-27T13:27:49.416Z,28.92
2022-07-27T13:30:19.468Z,29.33
2022-07-27T13:32:48.052Z,28.10
2022-07-27T13:35:16.961Z,27.56
2022-07-27T13:37:45.635Z,28.11
2022-07-27T13:40:14.709Z,27.53
2022-07-27T13:42:42.593Z,27.05
2022-07-27T13:45:12.674Z,27.33
2022-07-27T13:47:41.941Z,27.54
2022-07-27T13:50:18.177Z,28.32
2022-07-27T13:52:47.791Z,28.55
2022-07-27T13:55:16.485Z,28.72
2022-07-27T13:57:44.869Z,28.84
2022-07-27T14:00:15.523Z,28.88
2022-07-27T14:02:43.531Z,29.04
2022-07-27T14:05:14.572Z,28.41
2022-07-27T14:07:43.796Z,28.48
2022-07-27T14:10:30.199Z,28.51
2022-07-27T14:12:59.249Z,28.64
2022-07-27T14:15:28.978Z,27.73
2022-07-27T14:17:56.827Z,28.13
2022-07-27T14:20:24.925Z,27.68
2022-07-27T14:22:52.843Z,27.69
2022-07-27T14:25:20.647Z,28.20
2022-07-27T14:27:48.437Z,28.69
2022-07-27T14:30:20.552Z,29.13
2022-07-27T14:32:50.248Z,29.97
2022-07-27T14:35:18.373Z,29.98
2022-07-27T14:37:46.837Z,29.95
2022-07-27T14:40:15.754Z,29.68
2022-07-27T14:42:43.685Z,29.77
2022-07-27T14:45:12.313Z,29.62
2022-07-27T14:47:40.111Z,29.71
2022-07-27T14:50:09.910Z,30.38
2022-07-27T14:52:37.815Z,30.28
2022-07-27T14:55:06.448Z,30.67
2022-07-27T14:57:34.348Z,30.10
2022-07-27T15:00:06.911Z,30.34
2022-07-27T15:02:35.800Z,30.41
2022-07-27T15:05:03.873Z,30.90
2022-07-27T15:07:33.077Z,31.19
2022-07-27T15:10:00.905Z,31.18
2022-07-27T15:12:29.449Z,31.36
2022-07-27T15:14:58.078Z,31.72
2022-07-27T15:17:25.899Z,31.63
2022-07-27T15:19:54.133Z,30.52
2022-07-27T15:22:21.917Z,31.02
2022-07-27T15:24:54.284Z,31.21
2022-07-27T15:27:23.096Z,32.15
2022-07-27T15:29:50.897Z,32.37
2022-07-27T15:32:18.697Z,32.39
2022-07-27T15:34:47.295Z,32.05
2022-07-27T15:37:15.083Z,31.84
2022-07-27T15:39:43.204Z,32.03
2022-07-27T15:42:12.458Z,31.67
2022-07-27T15:44:41.438Z,31.55
2022-07-27T15:47:09.538Z,31.57
2022-07-27T15:49:37.392Z,31.71
2022-07-27T15:52:05.753Z,31.96
2022-07-27T15:54:38.218Z,31.81
2022-07-27T15:57:10.716Z,31.95
2022-07-27T15:59:40.029Z,32.39
2022-07-27T16:02:07.831Z,31.71
2022-07-27T16:04:35.712Z,31.79
2022-07-27T16:07:03.565Z,32.50
2022-07-27T16:09:31.460Z,32.45
2022-07-27T16:11:59.305Z,33.03
2022-07-27T16:14:27.130Z,32.34
2022-07-27T16:16:56.256Z,32.48
2022-07-27T16:19:24.113Z,32.61
2022-07-27T16:21:53.407Z,32.39
2022-07-27T16:24:22.383Z,32.68
2022-07-27T16:26:50.286Z,33.38
2022-07-27T16:29:18.339Z,33.81
2022-07-27T16:31:46.321Z,34.23
2022-07-27T16:34:15.548Z,33.73
2022-07-27T16:36:43.368Z,33.91
2022-07-27T16:39:11.502Z,34.55
2022-07-27T16:41:39.687Z,35.08
2022-07-27T16:44:07.507Z,35.18
2022-07-27T16:46:35.497Z,35.25
2022-07-27T16:49:03.552Z,35.64
2022-07-27T16:51:32.857Z,35.77
2022-07-27T16:54:00.689Z,35.89
2022-07-27T16:56:28.501Z,36.21
2022-07-27T16:58:56.344Z,36.40
2022-07-27T17:01:26.808Z,36.77
2022-07-27T17:03:56.396Z,36.34
2022-07-27T17:06:26.022Z,36.49
2022-07-27T17:08:56.075Z,36.55
2022-07-27T17:11:25.032Z,36.92
2022-07-27T17:13:59.473Z,37.25
2022-07-27T17:16:28.167Z,36.89
2022-07-27T17:18:56.199Z,37.21
2022-07-27T17:21:24.007Z,37.61
2022-07-27T17:23:51.874Z,37.88
2022-07-27T17:26:22.749Z,37.71
2022-07-27T17:28:53.481Z,38.11
2022-07-27T17:31:22.245Z,38.28
2022-07-27T17:33:51.041Z,38.51
2022-07-27T17:36:18.947Z,38.77
2022-07-27T17:38:48.079Z,38.92
2022-07-27T17:41:24.094Z,38.48
2022-07-27T17:43:55.482Z,38.63
2022-07-27T17:46:24.733Z,38.80
2022-07-27T17:48:53.895Z,38.85
2022-07-27T17:51:23.266Z,38.86
2022-07-27T17:53:51.171Z,39.46
2022-07-27T17:56:19.190Z,40.06
2022-07-27T17:58:48.156Z,40.05
2022-07-27T18:01:17.440Z,39.66
2022-07-27T18:03:45.340Z,39.56
2022-07-27T18:06:13.236Z,39.27
2022-07-27T18:08:41.164Z,39.44
2022-07-27T18:11:12.157Z,39.27
2022-07-27T18:13:40.565Z,39.34
2022-07-27T18:16:11.603Z,39.43
2022-07-27T18:18:42.011Z,39.27
2022-07-27T18:21:11.624Z,39.45
2022-07-27T18:23:40.519Z,39.62
2022-07-27T18:26:09.953Z,39.82
2022-07-27T18:28:39.946Z,41.39
2022-07-27T18:31:09.886Z,43.41
2022-07-27T18:33:38.190Z,44.35
2022-07-27T18:36:08.212Z,43.86
2022-07-27T18:38:36.078Z,42.90
2022-07-27T18:41:04.062Z,42.55
2022-07-27T18:43:32.078Z,42.70
2022-07-27T18:46:00.037Z,42.69
2022-07-27T18:48:28.867Z,42.81
2022-07-27T18:50:56.853Z,43.23
2022-07-27T18:53:26.102Z,43.11
2022-07-27T18:55:56.424Z,43.59
2022-07-27T18:58:24.668Z,44.05
2022-07-27T19:00:52.759Z,43.58
2022-07-27T19:03:22.833Z,44.26
2022-07-27T19:05:52.933Z,44.41
2022-07-27T19:08:22.116Z,44.51
2022-07-27T19:10:51.927Z,45.01
2022-07-27T19:13:19.805Z,45.27
2022-07-27T19:15:47.692Z,45.39
2022-07-27T19:18:15.585Z,45.76
2022-07-27T19:20:43.456Z,46.23
2022-07-27T19:23:12.328Z,46.16
2022-07-27T19:25:40.332Z,46.46
2022-07-27T19:28:09.538Z,46.29
2022-07-27T19:30:38.822Z,46.53
2022-07-27T19:33:07.022Z,46.91
2022-07-27T19:35:35.234Z,46.92
2022-07-27T19:38:03.163Z,47.45
2022-07-27T19:40:44.047Z,47.62
2022-07-27T19:43:15.125Z,47.61
2022-07-27T19:45:43.475Z,47.83
2022-07-27T19:48:11.966Z,48.16
2022-07-27T19:50:39.954Z,48.19
2022-07-27T19:53:08.276Z,48.60
2022-07-27T19:55:36.193Z,48.84
2022-07-27T19:58:04.063Z,48.91
2022-07-27T20:00:33.549Z,49.33
2022-07-27T20:03:01.606Z,49.30
2022-07-27T20:05:29.707Z,49.73
2022-07-27T20:07:57.685Z,49.91
2022-07-27T20:10:26.302Z,50.19
2022-07-27T20:12:54.228Z,50.45
2022-07-27T20:15:22.601Z,50.67
2022-07-27T20:17:52.339Z,50.76
2022-07-27T20:20:20.319Z,51.00
2022-07-27T20:22:48.494Z,51.32
2022-07-27T20:25:18.451Z,51.27
2022-07-27T20:27:47.329Z,51.48
2022-07-27T20:30:17.285Z,51.51
2022-07-27T20:32:45.719Z,51.85
2022-07-27T20:35:15.101Z,51.94
2022-07-27T20:37:43.406Z,52.08
2022-07-27T20:40:12.453Z,52.41
2022-07-27T20:42:41.088Z,52.58
2022-07-27T20:45:11.594Z,52.82
2022-07-27T20:47:39.607Z,53.17
2022-07-27T20:50:09.258Z,53.42
2022-07-27T20:52:38.719Z,53.76
2022-07-27T20:55:08.164Z,53.99
2022-07-27T20:57:36.139Z,54.12
2022-07-27T21:00:06.452Z,54.32
2022-07-27T21:02:34.465Z,54.71
2022-07-27T21:05:02.726Z,54.95
2022-07-27T21:07:30.577Z,55.27
2022-07-27T21:09:59.813Z,55.27
2022-07-27T21:12:27.727Z,55.28
2022-07-27T21:14:55.666Z,55.51
2022-07-27T21:17:23.576Z,55.66
2022-07-27T21:19:51.466Z,56.18
2022-07-27T21:22:20.565Z,56.26
2022-07-27T21:24:47.529Z,56.56
2022-07-27T21:27:19.768Z,56.50
2022-07-27T21:29:49.229Z,56.89
2022-07-27T21:32:17.116Z,56.86
2022-07-27T21:34:45.606Z,56.99
2022-07-27T21:37:13.558Z,57.32
2022-07-27T21:39:41.500Z,57.43
2022-07-27T21:42:09.388Z,57.55
2022-07-27T21:44:41.786Z,57.72
2022-07-27T21:47:13.776Z,58.26
2022-07-27T21:49:42.605Z,58.51
2022-07-27T21:52:11.322Z,58.57
2022-07-27T21:54:39.569Z,58.80
2022-07-27T21:57:07.433Z,58.91
2022-07-27T21:59:35.298Z,59.10
2022-07-27T22:02:04.689Z,59.28
2022-07-27T22:04:32.970Z,59.31
2022-07-27T22:07:00.929Z,59.52
2022-07-27T22:09:28.858Z,59.76
2022-07-27T22:11:56.755Z,60.03
2022-07-27T22:14:24.900Z,60.10
2022-07-27T22:16:53.785Z,60.16
2022-07-27T22:19:23.537Z,60.59
2022-07-27T22:21:51.404Z,60.53
2022-07-27T22:24:19.388Z,60.71
2022-07-27T22:26:47.358Z,60.99
2022-07-27T22:29:15.214Z,61.17
2022-07-27T22:31:43.611Z,61.37
2022-07-27T22:34:11.859Z,61.47
2022-07-27T22:36:41.316Z,61.83
2022-07-27T22:39:09.267Z,62.16
2022-07-27T22:41:37.302Z,62.21
2022-07-27T22:44:05.410Z,62.10
2022-07-27T22:46:33.358Z,62.47
2022-07-27T22:49:01.294Z,62.47
2022-07-27T22:51:50.319Z,62.72
2022-07-27T22:54:18.784Z,62.92
2022-07-27T22:56:46.972Z,62.86
2022-07-27T22:59:14.933Z,63.10
2022-07-27T23:01:47.352Z,63.13
2022-07-27T23:04:16.977Z,63.19
2022-07-27T23:06:45.696Z,63.33
2022-07-27T23:09:13.769Z,63.52
2022-07-27T23:11:43.117Z,63.82
2022-07-27T23:14:11.396Z,63.89
2022-07-27T23:16:39.712Z,64.02
2022-07-27T23:19:07.677Z,64.29
2022-07-27T23:21:35.629Z,64.34
2022-07-27T23:24:05.598Z,64.44
2022-07-27T23:26:33.568Z,64.53
2022-07-27T23:29:03.163Z,64.62
2022-07-27T23:31:31.127Z,64.84
2022-07-27T23:33:59.037Z,64.78
2022-07-27T23:36:26.870Z,65.27
2022-07-27T23:38:54.801Z,65.50
2022-07-27T23:41:22.690Z,65.66
2022-07-27T23:43:50.532Z,65.93
2022-07-27T23:46:19.938Z,65.93
2022-07-27T23:48:47.941Z,66.13
2022-07-27T23:51:19.138Z,66.50
2022-07-27T23:53:47.672Z,66.60
2022-07-27T23:56:15.590Z,66.84
2022-07-27T23:58:43.592Z,67.01
